createdAt,value
2018-08-12T00:00:02.032Z,27.6
2018-08-12T00:00:52.394Z,27.6
2018-08-12T00:01:42.718Z,27.6
2018-08-12T00:02:32.548Z,27.6
2018-08-12T00:03:22.289Z,27.6
2018-08-12T00:04:12.679Z,27.6
2018-08-12T00:05:02.437Z,27.6
2018-08-12T00:05:52.785Z,27.6
2018-08-12T00:06:42.821Z,27.6
2018-08-12T00:07:32.607Z,27.6
2018-08-12T00:08:23.236Z,27.6
2018-08-12T00:09:13.345Z,27.6
2018-08-12T00:10:17.730Z,27.6
2018-08-12T00:10:53.129Z,27.6
2018-08-12T00:11:43.470Z,27.6
2018-08-12T00:12:33.265Z,27.6
2018-08-12T00:13:23.582Z,27.6
2018-08-12T00:14:13.129Z,27.6
2018-08-12T00:15:03.870Z,27.6
2018-08-12T00:15:53.828Z,27.6
2018-08-12T00:16:43.357Z,27.6
2018-08-12T00:17:33.654Z,27.6
2018-08-12T00:18:23.499Z,27.6
2018-08-12T00:37:17.031Z,27.5
2018-08-12T00:38:07.101Z,27.5
2018-08-12T00:38:57.362Z,27.5
2018-08-12T00:39:47.189Z,27.5
2018-08-12T00:40:36.955Z,27.5
2018-08-12T00:41:27.270Z,27.5
2018-08-12T00:42:17.617Z,27.5
2018-08-12T00:43:07.714Z,27.5
2018-08-12T00:43:57.777Z,27.5
2018-08-12T00:44:46.675Z,27.5
2018-08-12T00:45:37.890Z,27.5
2018-08-12T00:46:27.937Z,27.5
2018-08-12T00:47:17.714Z,27.5
2018-08-12T00:48:07.890Z,27.5
2018-08-12T00:48:57.845Z,27.5
2018-08-12T00:49:47.645Z,27.5
2018-08-12T00:50:38.263Z,27.5
2018-08-12T00:51:28.327Z,27.5
2018-08-12T00:52:18.510Z,27.5
2018-08-12T00:53:08.507Z,27.5
2018-08-12T00:53:58.252Z,27.5
2018-08-12T00:54:48.570Z,27.5
2018-08-12T00:55:38.635Z,27.5
2018-08-12T00:56:28.721Z,27.4
2018-08-12T00:57:18.496Z,27.5
2018-08-12T00:58:08.551Z,27.5
2018-08-12T00:58:58.614Z,27.5
2018-08-12T00:59:48.688Z,27.4
2018-08-12T01:00:38.736Z,27.5
2018-08-12T01:01:28.797Z,27.5
2018-08-12T01:02:18.909Z,27.4
2018-08-12T01:03:08.938Z,27.4
2018-08-12T01:03:58.985Z,27.4
2018-08-12T01:04:49.061Z,27.4
2018-08-12T01:05:39.114Z,27.4
2018-08-12T01:06:28.901Z,27.4
2018-08-12T01:07:19.260Z,27.4
2018-08-12T01:08:09.594Z,27.4
2018-08-12T01:08:59.650Z,27.4
2018-08-12T01:09:49.484Z,27.4
2018-08-12T01:10:39.523Z,27.4
2018-08-12T01:11:29.602Z,27.4
2018-08-12T01:12:19.343Z,27.4
2018-08-12T01:13:09.994Z,27.4
2018-08-12T01:13:59.784Z,27.4
2018-08-12T01:14:49.589Z,27.4
2018-08-12T01:15:39.615Z,27.4
2018-08-12T01:16:30.210Z,27.4
2018-08-12T01:17:20.005Z,27.4
2018-08-12T01:18:10.355Z,27.4
2018-08-12T01:19:00.133Z,27.4
2018-08-12T01:19:50.221Z,27.4
2018-08-12T01:20:40.565Z,27.4
2018-08-12T01:21:30.356Z,27.4
2018-08-12T01:22:20.686Z,27.4
2018-08-12T01:23:10.579Z,27.4
2018-08-12T01:24:00.529Z,27.4
2018-08-12T01:24:50.916Z,27.4
2018-08-12T01:25:40.380Z,27.4
2018-08-12T01:26:30.728Z,27.4
2018-08-12T01:27:20.842Z,27.4
2018-08-12T01:28:10.571Z,27.4
2018-08-12T01:29:01.224Z,27.4
2018-08-12T01:29:51.272Z,27.4
2018-08-12T01:30:41.368Z,27.4
2018-08-12T01:31:31.410Z,27.4
2018-08-12T01:32:21.185Z,27.4
2018-08-12T01:33:11.520Z,27.4
2018-08-12T01:34:01.310Z,27.4
2018-08-12T01:34:51.385Z,27.4
2018-08-12T01:35:41.728Z,27.4
2018-08-12T01:36:31.503Z,27.4
2018-08-12T01:37:21.587Z,27.4
2018-08-12T01:38:11.637Z,27.4
2018-08-12T01:39:01.416Z,27.4
2018-08-12T01:39:51.745Z,27.4
2018-08-12T01:40:41.799Z,27.4
2018-08-12T01:41:31.891Z,27.4
2018-08-12T01:42:21.654Z,27.3
2018-08-12T01:43:12.006Z,27.4
2018-08-12T01:44:02.103Z,27.3
2018-08-12T01:44:52.417Z,27.4
2018-08-12T01:45:41.939Z,27.4
2018-08-12T01:46:31.991Z,27.3
2018-08-12T01:47:22.040Z,27.3
2018-08-12T01:48:12.701Z,27.3
2018-08-12T01:49:02.263Z,27.4
2018-08-12T01:49:52.506Z,27.3
2018-08-12T01:50:42.548Z,27.3
2018-08-12T01:51:32.939Z,27.3
2018-08-12T01:52:22.985Z,27.3
2018-08-12T01:53:12.779Z,27.3
2018-08-12T01:54:02.864Z,27.3
2018-08-12T01:54:52.652Z,27.3
2018-08-12T01:55:42.972Z,27.3
2018-08-12T01:56:33.150Z,27.3
2018-08-12T01:57:23.095Z,27.3
2018-08-12T01:58:13.449Z,27.3
2018-08-12T01:59:03.236Z,27.3
2018-08-12T01:59:52.736Z,27.3
2018-08-12T02:00:43.373Z,27.3
2018-08-12T02:01:33.695Z,27.3
2018-08-12T02:02:23.472Z,27.3
2018-08-12T02:03:13.823Z,27.3
2018-08-12T02:04:03.347Z,27.3
2018-08-12T02:04:53.383Z,27.3
2018-08-12T02:05:43.748Z,27.3
2018-08-12T02:06:33.843Z,27.3
2018-08-12T02:07:23.875Z,27.3
2018-08-12T02:08:14.213Z,27.3
2018-08-12T02:09:03.431Z,27.3
2018-08-12T02:09:54.075Z,27.3
2018-08-12T02:10:44.125Z,27.3
2018-08-12T02:11:33.902Z,27.3
2018-08-12T02:12:24.281Z,27.3
2018-08-12T02:13:14.311Z,27.3
2018-08-12T02:14:04.667Z,27.3
2018-08-12T02:14:53.916Z,27.3
2018-08-12T02:15:44.238Z,27.3
2018-08-12T02:16:34.862Z,27.3
2018-08-12T02:17:24.626Z,27.3
2018-08-12T02:18:14.408Z,27.3
2018-08-12T02:19:04.759Z,27.3
2018-08-12T02:19:54.850Z,27.3
2018-08-12T02:20:44.920Z,27.3
2018-08-12T02:21:34.100Z,27.3
2018-08-12T02:22:25.002Z,27.3
2018-08-12T02:23:14.523Z,27.3
2018-08-12T02:24:05.440Z,27.3
2018-08-12T02:24:55.563Z,27.3
2018-08-12T02:25:45.576Z,27.3
2018-08-12T02:26:35.385Z,27.3
2018-08-12T02:27:25.438Z,27.3
2018-08-12T02:28:15.480Z,27.3
2018-08-12T02:29:05.525Z,27.3
2018-08-12T02:29:55.873Z,27.2
2018-08-12T02:30:45.945Z,27.3
2018-08-12T02:31:35.714Z,27.2
2018-08-12T02:32:26.089Z,27.3
2018-08-12T02:33:15.869Z,27.3
2018-08-12T02:34:05.950Z,27.2
2018-08-12T02:34:55.995Z,27.2
2018-08-12T02:35:46.033Z,27.2
2018-08-12T02:36:36.142Z,27.2
2018-08-12T02:37:25.899Z,27.2
2018-08-12T02:38:16.531Z,27.2
2018-08-12T02:39:06.323Z,27.3
2018-08-12T02:39:56.658Z,27.2
2018-08-12T02:40:46.453Z,27.2
2018-08-12T02:41:36.529Z,27.2
2018-08-12T02:42:26.572Z,27.2
2018-08-12T02:43:16.916Z,27.2
2018-08-12T02:44:06.971Z,27.3
2018-08-12T02:44:57.054Z,27.2
2018-08-12T02:45:47.250Z,27.2
2018-08-12T02:46:37.164Z,27.2
2018-08-12T02:47:27.229Z,27.2
2018-08-12T02:48:17.046Z,27.2
2018-08-12T02:49:07.080Z,27.2
2018-08-12T02:49:57.540Z,27.2
2018-08-12T02:50:46.912Z,27.2
2018-08-12T02:51:37.272Z,27.2
2018-08-12T02:52:27.323Z,27.2
2018-08-12T02:53:17.095Z,27.2
2018-08-12T02:54:07.748Z,27.2
2018-08-12T02:54:57.817Z,27.2
2018-08-12T02:55:47.295Z,27.2
2018-08-12T02:56:37.663Z,27.2
2018-08-12T02:57:27.979Z,27.2
2018-08-12T02:58:18.057Z,27.1
2018-08-12T02:59:06.978Z,27.2
2018-08-12T02:59:57.666Z,27.2
2018-08-12T03:00:48.253Z,27.2
2018-08-12T03:01:38.292Z,27.1
2018-08-12T03:02:27.793Z,27.2
2018-08-12T03:03:18.146Z,27.1
2018-08-12T03:04:08.207Z,27.2
2018-08-12T03:04:58.533Z,27.2
2018-08-12T03:05:48.354Z,27.1
2018-08-12T03:06:38.692Z,27.1
2018-08-12T03:07:28.161Z,27.1
2018-08-12T03:08:18.812Z,27.1
2018-08-12T03:09:08.908Z,27.1
2018-08-12T03:09:58.961Z,27.1
2018-08-12T03:10:49.011Z,27.1
2018-08-12T03:11:37.914Z,27.1
2018-08-12T03:12:29.138Z,27.1
2018-08-12T03:13:19.224Z,27.1
2018-08-12T03:14:08.991Z,27.1
2018-08-12T03:14:59.356Z,27.1
2018-08-12T03:15:49.419Z,27.1
2018-08-12T03:16:39.171Z,27.1
2018-08-12T03:17:29.499Z,27.1
2018-08-12T03:18:19.621Z,27.1
2018-08-12T03:19:09.385Z,27.1
2018-08-12T03:19:58.658Z,27.1
2018-08-12T03:20:49.188Z,27.1
2018-08-12T03:21:38.986Z,27.1
2018-08-12T03:22:30.729Z,27.1
2018-08-12T03:23:19.980Z,27.1
2018-08-12T03:24:09.768Z,27.1
2018-08-12T03:24:59.241Z,27.1
2018-08-12T03:25:49.930Z,27.1
2018-08-12T03:26:39.651Z,27.1
2018-08-12T03:27:30.029Z,27.1
2018-08-12T03:28:20.073Z,27.1
2018-08-12T03:29:09.866Z,27.1
2018-08-12T03:30:01.141Z,27.1
2018-08-12T03:30:50.534Z,27.1
2018-08-12T03:31:40.055Z,27.1
2018-08-12T03:32:29.808Z,27.1
2018-08-12T03:33:20.478Z,27.1
2018-08-12T03:34:10.538Z,27.1
2018-08-12T03:35:00.883Z,27.1
2018-08-12T03:35:50.648Z,27.1
2018-08-12T03:36:41.007Z,27.1
2018-08-12T03:37:31.082Z,27.1
2018-08-12T03:38:20.829Z,27.1
2018-08-12T03:39:10.358Z,27.1
2018-08-12T03:40:01.211Z,27.1
2018-08-12T03:40:51.287Z,27.1
2018-08-12T03:41:41.363Z,27.1
2018-08-12T03:42:31.444Z,27.1
2018-08-12T03:43:20.923Z,27.1
2018-08-12T03:44:11.588Z,27.1
2018-08-12T03:45:01.410Z,27.1
2018-08-12T03:45:51.404Z,27.1
2018-08-12T03:46:41.817Z,27.1
2018-08-12T03:47:31.829Z,27.1
2018-08-12T03:48:21.598Z,27.1
2018-08-12T03:49:11.678Z,27.1
2018-08-12T03:50:01.749Z,27.1
2018-08-12T03:50:52.094Z,27.1
2018-08-12T03:51:41.840Z,27.1
2018-08-12T03:52:32.181Z,27.1
2018-08-12T03:53:22.271Z,27.1
2018-08-12T03:54:12.321Z,27.1
2018-08-12T03:55:02.407Z,27
2018-08-12T03:55:52.166Z,27.1
2018-08-12T03:56:42.536Z,27.1
2018-08-12T03:57:32.298Z,27.1
2018-08-12T03:58:21.785Z,27.1
2018-08-12T03:59:12.743Z,27.1
2018-08-12T04:00:02.558Z,27.1
2018-08-12T04:00:52.826Z,27.1
2018-08-12T04:01:42.348Z,27
2018-08-12T04:02:32.691Z,27.1
2018-08-12T04:03:23.016Z,27.1
2018-08-12T04:04:12.247Z,27
2018-08-12T04:05:03.158Z,27.1
2018-08-12T04:05:52.937Z,27.1
2018-08-12T04:06:43.290Z,27
2018-08-12T04:07:32.765Z,27
2018-08-12T04:08:23.398Z,27
2018-08-12T04:09:13.194Z,27
2018-08-12T04:10:03.551Z,27
2018-08-12T04:10:53.001Z,27.1
2018-08-12T04:11:43.650Z,27
2018-08-12T04:12:33.712Z,27
2018-08-12T04:13:23.515Z,27
2018-08-12T04:14:13.833Z,27
2018-08-12T04:15:03.920Z,27
2018-08-12T04:15:53.967Z,27
2018-08-12T04:16:43.507Z,27
2018-08-12T04:17:33.825Z,27
2018-08-12T04:18:23.880Z,27
2018-08-12T04:19:14.229Z,27
2018-08-12T04:20:03.772Z,27
2018-08-12T04:20:54.368Z,27
2018-08-12T04:21:44.458Z,27
2018-08-12T04:22:34.500Z,27
2018-08-12T04:23:24.593Z,27
2018-08-12T04:24:14.628Z,27
2018-08-12T04:25:04.690Z,27
2018-08-12T04:25:54.480Z,27
2018-08-12T04:26:44.815Z,27
2018-08-12T04:27:34.864Z,27
2018-08-12T04:28:24.384Z,27
2018-08-12T04:29:15.024Z,27
2018-08-12T04:30:05.095Z,27
2018-08-12T04:30:54.864Z,27
2018-08-12T04:31:45.236Z,27
2018-08-12T04:32:34.686Z,27
2018-08-12T04:33:25.042Z,27
2018-08-12T04:34:15.381Z,27
2018-08-12T04:35:05.452Z,27.1
2018-08-12T04:35:55.237Z,27.1
2018-08-12T04:36:45.594Z,27
2018-08-12T04:37:35.424Z,27
2018-08-12T04:38:25.424Z,27.1
2018-08-12T04:39:15.784Z,27
2018-08-12T04:40:05.255Z,27.1
2018-08-12T04:40:55.626Z,27
2018-08-12T04:41:45.397Z,27
2018-08-12T04:42:35.505Z,27
2018-08-12T04:43:25.824Z,27
2018-08-12T04:44:15.572Z,27.1
2018-08-12T04:45:06.252Z,27.1
2018-08-12T04:45:56.646Z,27
2018-08-12T04:46:45.804Z,27.1
2018-08-12T04:47:36.411Z,27.1
2018-08-12T04:48:26.211Z,27
2018-08-12T05:06:40.935Z,27
2018-08-12T05:07:30.503Z,27
2018-08-12T05:08:20.198Z,26.9
2018-08-12T05:09:11.109Z,27
2018-08-12T05:10:01.185Z,27
2018-08-12T05:10:51.249Z,27
2018-08-12T05:11:41.323Z,27
2018-08-12T05:12:31.363Z,27
2018-08-12T05:13:21.418Z,27
2018-08-12T05:14:11.519Z,27
2018-08-12T05:15:00.994Z,27
2018-08-12T05:15:51.608Z,27
2018-08-12T05:16:40.831Z,26.9
2018-08-12T05:17:31.177Z,26.9
2018-08-12T05:18:21.525Z,27
2018-08-12T05:19:11.933Z,27
2018-08-12T05:20:01.412Z,26.9
2018-08-12T05:20:51.153Z,26.9
2018-08-12T05:21:42.078Z,26.9
2018-08-12T05:22:32.106Z,27
2018-08-12T05:23:22.248Z,26.9
2018-08-12T05:24:11.688Z,26.9
2018-08-12T05:25:02.336Z,27
2018-08-12T05:25:52.115Z,26.9
2018-08-12T05:26:42.428Z,26.9
2018-08-12T05:27:32.001Z,26.9
2018-08-12T05:28:22.113Z,26.9
2018-08-12T05:29:12.642Z,26.9
2018-08-12T05:30:02.726Z,26.9
2018-08-12T05:30:52.483Z,26.9
2018-08-12T05:31:42.538Z,26.9
2018-08-12T05:32:32.050Z,26.9
2018-08-12T05:33:22.402Z,26.9
2018-08-12T05:34:12.992Z,26.9
2018-08-12T05:35:02.820Z,26.9
2018-08-12T05:35:52.865Z,26.9
2018-08-12T05:36:43.233Z,26.9
2018-08-12T05:37:33.055Z,26.9
2018-08-12T05:38:23.319Z,26.9
2018-08-12T05:39:12.915Z,26.9
2018-08-12T05:40:02.896Z,26.9
2018-08-12T05:40:53.541Z,26.9
2018-08-12T05:41:43.318Z,26.9
2018-08-12T05:42:33.367Z,26.9
2018-08-12T05:43:23.467Z,26.9
2018-08-12T05:44:13.787Z,26.9
2018-08-12T05:45:03.074Z,26.9
2018-08-12T05:45:53.885Z,26.9
2018-08-12T05:46:43.688Z,26.9
2018-08-12T05:47:33.760Z,26.9
2018-08-12T05:48:23.614Z,26.9
2018-08-12T05:49:13.865Z,26.9
2018-08-12T05:50:03.945Z,26.9
2018-08-12T05:50:53.733Z,26.9
2018-08-12T05:51:44.380Z,26.8
2018-08-12T05:52:34.429Z,26.9
2018-08-12T05:53:24.299Z,26.9
2018-08-12T05:54:14.273Z,26.9
2018-08-12T05:55:04.626Z,26.9
2018-08-12T05:55:54.675Z,26.9
2018-08-12T05:56:44.737Z,26.9
2018-08-12T05:57:34.537Z,26.9
2018-08-12T05:58:24.396Z,26.9
2018-08-12T05:59:14.086Z,26.9
2018-08-12T06:00:05.037Z,26.9
2018-08-12T06:00:54.789Z,26.9
2018-08-12T06:01:45.124Z,26.8
2018-08-12T06:02:35.540Z,26.9
2018-08-12T06:03:25.260Z,26.8
2018-08-12T06:04:15.307Z,26.8
2018-08-12T06:05:05.123Z,26.8
2018-08-12T06:05:55.153Z,26.8
2018-08-12T06:06:44.948Z,26.8
2018-08-12T06:07:35.317Z,26.8
2018-08-12T06:08:25.489Z,26.8
2018-08-12T06:09:15.408Z,26.8
2018-08-12T06:10:05.766Z,26.8
2018-08-12T06:10:55.539Z,26.8
2018-08-12T06:11:45.897Z,26.8
2018-08-12T06:12:35.955Z,26.8
2018-08-12T06:13:26.015Z,26.8
2018-08-12T06:14:16.075Z,26.8
2018-08-12T06:15:05.872Z,26.8
2018-08-12T06:15:55.977Z,26.8
2018-08-12T06:16:46.259Z,26.8
2018-08-12T06:17:36.939Z,26.8
2018-08-12T06:18:26.131Z,26.8
2018-08-12T06:19:16.462Z,26.8
2018-08-12T06:20:06.263Z,26.8
2018-08-12T06:20:56.037Z,26.8
2018-08-12T06:21:46.381Z,26.8
2018-08-12T06:22:36.141Z,26.8
2018-08-12T06:23:26.513Z,26.8
2018-08-12T06:24:16.845Z,26.8
2018-08-12T06:25:06.643Z,26.8
2018-08-12T06:25:56.998Z,26.8
2018-08-12T06:26:47.017Z,26.8
2018-08-12T06:27:36.852Z,26.8
2018-08-12T06:28:26.882Z,26.8
2018-08-12T06:29:16.665Z,26.8
2018-08-12T06:30:07.314Z,26.8
2018-08-12T06:30:57.400Z,26.8
2018-08-12T06:31:47.195Z,26.8
2018-08-12T06:32:37.589Z,26.8
2018-08-12T06:33:27.012Z,26.8
2018-08-12T06:34:17.606Z,26.8
2018-08-12T06:35:07.155Z,26.8
2018-08-12T06:35:56.690Z,26.7
2018-08-12T06:36:47.553Z,26.8
2018-08-12T06:37:37.621Z,26.8
2018-08-12T06:38:27.377Z,26.8
2018-08-12T06:39:18.000Z,26.8
2018-08-12T06:40:07.808Z,26.8
2018-08-12T06:40:57.856Z,26.8
2018-08-12T06:41:48.214Z,26.8
2018-08-12T06:42:37.792Z,26.7
2018-08-12T06:43:28.327Z,26.8
2018-08-12T06:44:17.918Z,26.8
2018-08-12T06:45:08.447Z,26.7
2018-08-12T06:45:57.985Z,26.8
2018-08-12T06:46:48.294Z,26.7
2018-08-12T06:47:38.348Z,26.8
2018-08-12T06:48:28.433Z,26.7
2018-08-12T06:49:18.759Z,26.7
2018-08-12T06:50:08.291Z,26.7
2018-08-12T06:50:58.371Z,26.7
2018-08-12T06:51:49.607Z,26.8
2018-08-12T06:52:38.745Z,26.3
2018-08-12T06:53:29.143Z,42
2018-08-12T06:54:18.891Z,55.8
2018-08-12T06:55:58.529Z,56.5
2018-08-12T06:56:49.351Z,56
2018-08-12T06:57:38.845Z,55.7
2018-08-12T06:58:29.198Z,55.5
2018-08-12T06:59:19.281Z,55.1
2018-08-12T07:00:09.310Z,54.6
2018-08-12T07:00:59.650Z,54.1
2018-08-12T07:01:49.732Z,53.5
2018-08-12T07:02:39.848Z,52.9
2018-08-12T07:03:29.848Z,52.4
2018-08-12T07:04:19.670Z,51.9
2018-08-12T07:05:10.007Z,51.4
2018-08-12T07:06:00.065Z,50.8
2018-08-12T07:06:49.859Z,50.3
2018-08-12T07:07:40.442Z,49.8
2018-08-12T07:08:29.674Z,49.2
2018-08-12T07:09:20.079Z,48.8
2018-08-12T07:10:10.374Z,48.3
2018-08-12T07:11:00.455Z,47.9
2018-08-12T07:11:49.946Z,47.4
2018-08-12T07:12:40.000Z,47.1
2018-08-12T07:13:29.771Z,46.6
2018-08-12T07:14:19.724Z,47.2
2018-08-12T07:15:10.217Z,49.6
2018-08-12T07:16:00.883Z,58.9
2018-08-12T07:16:50.604Z,60.2
2018-08-12T07:18:30.985Z,56.4
2018-08-12T07:19:21.091Z,55.6
2018-08-12T07:20:11.169Z,55.4
2018-08-12T07:21:00.930Z,55.3
2018-08-12T07:21:51.275Z,55
2018-08-12T07:22:41.065Z,54.7
2018-08-12T07:23:30.635Z,54.4
2018-08-12T07:24:21.472Z,54
2018-08-12T07:25:11.525Z,53.6
2018-08-12T07:26:01.331Z,53.3
2018-08-12T07:26:51.373Z,52.9
2018-08-12T07:27:41.172Z,52.4
2018-08-12T07:28:31.808Z,52
2018-08-12T07:29:21.618Z,50.9
2018-08-12T07:30:11.895Z,57.3
2018-08-12T07:31:01.719Z,61.4
2018-08-12T07:31:51.760Z,61.8
2018-08-12T07:32:42.244Z,61
2018-08-12T07:33:32.192Z,58.9
2018-08-12T07:34:22.245Z,56.8
2018-08-12T07:35:12.302Z,56
2018-08-12T07:36:02.384Z,56.8
2018-08-12T07:36:52.135Z,58.3
2018-08-12T07:37:42.496Z,59.4
2018-08-12T07:38:32.391Z,60
2018-08-12T07:39:22.634Z,60.1
2018-08-12T07:40:12.452Z,59.6
2018-08-12T07:41:02.764Z,58.9
2018-08-12T07:41:52.527Z,58.4
2018-08-12T07:42:42.632Z,58.3
2018-08-12T07:43:32.102Z,58.5
2018-08-12T07:44:22.434Z,58.8
2018-08-12T07:45:12.778Z,59.1
2018-08-12T07:46:02.860Z,59
2018-08-12T07:46:52.633Z,58.7
2018-08-12T07:47:42.687Z,58.3
2018-08-12T07:48:33.341Z,57.9
2018-08-12T07:49:22.851Z,57.7
2018-08-12T07:50:13.505Z,57.6
2018-08-12T07:51:03.077Z,57.3
2018-08-12T07:51:53.600Z,57
2018-08-12T07:52:43.423Z,56.7
2018-08-12T07:53:33.748Z,56.3
2018-08-12T07:54:23.802Z,55.6
2018-08-12T07:55:13.866Z,54.8
2018-08-12T07:56:03.639Z,54.2
2018-08-12T07:56:53.704Z,53.5
2018-08-12T07:57:44.041Z,52.9
2018-08-12T07:58:33.847Z,52.3
2018-08-12T07:59:24.198Z,51.7
2018-08-12T08:00:13.977Z,51.5
2018-08-12T08:01:04.288Z,51.3
2018-08-12T08:01:54.347Z,51.1
2018-08-12T08:02:44.414Z,50.9
2018-08-12T08:03:34.467Z,50.6
2018-08-12T08:04:24.268Z,50.3
2018-08-12T08:05:14.607Z,49.9
2018-08-12T08:06:04.447Z,49.6
2018-08-12T08:06:54.457Z,49.3
2018-08-12T08:07:44.814Z,48.9
2018-08-12T08:08:34.595Z,48.6
2018-08-12T08:09:24.932Z,48.3
2018-08-12T08:10:14.771Z,47.9
2018-08-12T08:11:04.828Z,47.6
2018-08-12T08:11:54.875Z,47.2
2018-08-12T08:12:45.294Z,46.8
2018-08-12T08:13:34.983Z,46.5
2018-08-12T08:14:25.352Z,46.1
2018-08-12T08:15:15.119Z,46.3
2018-08-12T08:16:05.236Z,48
2018-08-12T08:16:55.052Z,55.8
2018-08-12T08:17:45.332Z,60.7
2018-08-12T08:18:35.709Z,61.1
2018-08-12T08:19:25.479Z,59.4
2018-08-12T08:20:15.559Z,56.5
2018-08-12T08:21:05.604Z,54.4
2018-08-12T08:21:55.930Z,53.4
2018-08-12T08:22:45.455Z,53.2
2018-08-12T08:23:35.498Z,53.1
2018-08-12T08:24:25.834Z,52.9
2018-08-12T08:25:15.721Z,52.6
2018-08-12T08:26:06.245Z,52.3
2018-08-12T08:26:56.312Z,52
2018-08-12T08:27:46.127Z,51.6
2018-08-12T08:28:36.162Z,56.3
2018-08-12T08:29:26.196Z,60.8
2018-08-12T08:30:16.280Z,61.4
2018-08-12T08:31:06.357Z,60.6
2018-08-12T08:31:59.036Z,58.6
2018-08-12T08:32:46.191Z,56.4
2018-08-12T08:33:36.819Z,55.7
2018-08-12T08:34:26.940Z,56.1
2018-08-12T08:35:16.954Z,57.1
2018-08-12T08:36:56.798Z,57.9
2018-08-12T08:37:46.682Z,57.7
2018-08-12T08:38:37.227Z,57.1
2018-08-12T08:39:27.007Z,56.7
2018-08-12T08:40:17.024Z,56.5
2018-08-12T08:41:06.817Z,56.7
2018-08-12T08:41:57.145Z,56.9
2018-08-12T08:42:47.217Z,57.2
2018-08-12T08:43:36.750Z,57.3
2018-08-12T08:44:27.376Z,57.2
2018-08-12T08:45:17.708Z,57.1
2018-08-12T08:46:07.797Z,57.1
2018-08-12T08:46:57.565Z,57.3
2018-08-12T08:47:47.895Z,57.4
2018-08-12T08:48:38.003Z,57.6
2018-08-12T08:49:28.023Z,57.8
2018-08-12T08:50:17.799Z,58
2018-08-12T08:51:07.598Z,58.2
2018-08-12T08:51:57.690Z,58.5
2018-08-12T08:52:48.014Z,58.8
2018-08-12T08:53:36.924Z,59.1
2018-08-12T08:54:28.159Z,59.4
2018-08-12T08:55:17.333Z,59.6
2018-08-12T08:56:09.089Z,59.9
2018-08-12T08:56:58.139Z,60.3
2018-08-12T08:57:48.427Z,60.5
2018-08-12T08:58:38.446Z,60.9
2018-08-12T08:59:28.835Z,61.4
2018-08-12T09:00:18.297Z,61.8
2018-08-12T09:01:08.993Z,62.3
2018-08-12T09:01:58.504Z,62.7
2018-08-12T09:02:49.072Z,63
2018-08-12T09:03:38.842Z,63.3
2018-08-12T09:04:29.250Z,63.6
2018-08-12T09:20:54.949Z,65.4
2018-08-12T09:21:44.565Z,65.5
2018-08-12T09:22:35.083Z,65.3
2018-08-12T09:23:24.942Z,65.3
2018-08-12T09:24:14.732Z,65.6
2018-08-12T09:25:05.283Z,66
2018-08-12T09:25:55.054Z,66.1
2018-08-12T09:26:45.098Z,65.5
2018-08-12T09:27:35.244Z,64.4
2018-08-12T09:28:25.269Z,63.4
2018-08-12T09:30:05.667Z,64.4
2018-08-12T09:30:55.181Z,65.4
2018-08-12T09:31:45.236Z,65.5
2018-08-12T09:32:35.572Z,65.3
2018-08-12T09:33:25.895Z,65.3
2018-08-12T09:34:15.974Z,65.6
2018-08-12T09:35:06.093Z,65.9
2018-08-12T09:35:55.823Z,66.4
2018-08-12T09:36:45.889Z,66.9
2018-08-12T09:37:35.971Z,67.2
2018-08-12T09:38:26.345Z,67.3
2018-08-12T09:39:16.370Z,67.4
2018-08-12T09:40:05.890Z,67.6
2018-08-12T09:40:56.520Z,67.7
2018-08-12T09:41:46.032Z,67.8
2018-08-12T09:42:36.644Z,67.9
2018-08-12T09:43:26.742Z,68.1
2018-08-12T09:44:16.799Z,68.3
2018-08-12T09:45:06.570Z,68.5
2018-08-12T09:45:56.911Z,68.4
2018-08-12T09:46:46.692Z,68.3
2018-08-12T09:47:36.488Z,67.9
2018-08-12T09:48:26.529Z,67.9
2018-08-12T09:49:16.986Z,67.7
2018-08-12T09:50:07.257Z,67.1
2018-08-12T09:50:56.752Z,66.1
2018-08-12T09:51:48.857Z,65.1
2018-08-12T09:52:37.422Z,64.3
2018-08-12T09:53:26.707Z,63.4
2018-08-12T09:54:17.048Z,62.8
2018-08-12T09:55:07.345Z,62.8
2018-08-12T09:55:57.670Z,63.5
2018-08-12T09:56:47.725Z,63.6
2018-08-12T09:57:37.810Z,62.9
2018-08-12T09:58:28.459Z,62.6
2018-08-12T09:59:17.939Z,63.4
2018-08-12T10:00:08.009Z,64.3
2018-08-12T10:00:57.779Z,65.2
2018-08-12T10:01:48.139Z,65.9
2018-08-12T10:02:37.924Z,66.6
2018-08-12T10:03:28.244Z,66.8
2018-08-12T10:04:18.101Z,66.8
2018-08-12T10:05:07.644Z,66.5
2018-08-12T10:05:58.186Z,65.5
2018-08-12T10:06:48.274Z,64.2
2018-08-12T10:07:39.145Z,63.1
2018-08-12T10:08:28.653Z,62.1
2018-08-12T10:09:18.232Z,61.5
2018-08-12T10:10:08.564Z,60.9
2018-08-12T10:10:58.585Z,60.4
2018-08-12T10:11:47.868Z,59.9
2018-08-12T10:12:39.037Z,60.6
2018-08-12T10:13:28.510Z,62.1
2018-08-12T10:14:19.111Z,63.4
2018-08-12T10:15:09.180Z,64.4
2018-08-12T10:15:58.988Z,64.8
2018-08-12T10:16:48.476Z,64.9
2018-08-12T10:17:39.123Z,64.9
2018-08-12T10:18:29.438Z,65.1
2018-08-12T10:19:19.492Z,65.6
2018-08-12T10:20:09.552Z,66.1
2018-08-12T10:20:59.362Z,66.6
2018-08-12T10:21:49.685Z,66.9
2018-08-12T10:22:39.785Z,67.2
2018-08-12T10:23:29.822Z,67.4
2018-08-12T10:24:19.868Z,67.6
2018-08-12T10:25:09.410Z,67.8
2018-08-12T10:25:59.462Z,68.1
2018-08-12T10:26:49.320Z,68.3
2018-08-12T10:27:39.881Z,68.5
2018-08-12T10:28:29.425Z,68.7
2018-08-12T10:29:20.607Z,69
2018-08-12T10:30:10.335Z,69.3
2018-08-12T10:30:59.867Z,69.6
2018-08-12T10:31:50.472Z,69.8
2018-08-12T10:32:40.525Z,69.5
2018-08-12T10:33:30.051Z,68.8
2018-08-12T10:34:20.646Z,68.8
2018-08-12T10:35:10.723Z,69.1
2018-08-12T10:36:00.795Z,69.4
2018-08-12T10:36:50.836Z,69.8
2018-08-12T10:37:40.664Z,69.9
2018-08-12T10:38:30.974Z,70
2018-08-12T10:39:21.041Z,69.9
2018-08-12T10:40:10.551Z,70
2018-08-12T10:41:01.156Z,70.1
2018-08-12T10:41:51.271Z,70.2
2018-08-12T10:42:41.312Z,70.4
2018-08-12T10:43:30.837Z,70.5
2018-08-12T10:44:22.105Z,70.6
2018-08-12T10:45:11.562Z,70.5
2018-08-12T10:46:01.569Z,70.5
2018-08-12T10:46:51.377Z,70.6
2018-08-12T10:47:41.434Z,70.6
2018-08-12T10:48:31.237Z,69.9
2018-08-12T10:49:21.871Z,69.1
2018-08-12T10:50:11.361Z,68.5
2018-08-12T10:51:02.162Z,67.8
2018-08-12T10:51:52.061Z,67.9
2018-08-12T10:52:42.142Z,68.7
2018-08-12T10:53:32.441Z,69.4
2018-08-12T10:54:22.228Z,69.8
2018-08-12T10:55:12.301Z,69.9
2018-08-12T10:56:01.792Z,69.8
2018-08-12T10:56:52.145Z,69.6
2018-08-12T10:57:42.553Z,69.7
2018-08-12T10:58:31.976Z,69.8
2018-08-12T10:59:23.140Z,70.1
2018-08-12T11:00:12.146Z,70.3
2018-08-12T11:01:02.165Z,70.3
2018-08-12T11:01:52.550Z,70.3
2018-08-12T11:02:42.903Z,70.3
2018-08-12T11:03:32.688Z,70.3
2018-08-12T11:04:22.988Z,70.3
2018-08-12T11:05:13.068Z,70.3
2018-08-12T11:06:03.192Z,69.6
2018-08-12T11:06:52.733Z,69.4
2018-08-12T11:07:43.308Z,69.6
2018-08-12T11:08:32.519Z,70
2018-08-12T11:09:22.589Z,70.3
2018-08-12T11:10:13.477Z,70.6
2018-08-12T11:11:03.513Z,70.8
2018-08-12T11:11:53.030Z,70.7
2018-08-12T11:12:44.407Z,70.6
2018-08-12T11:13:33.747Z,69.9
2018-08-12T11:14:23.783Z,69.6
2018-08-12T11:15:13.018Z,68.8
2018-08-12T11:16:03.938Z,67.4
2018-08-12T11:16:53.441Z,66.1
2018-08-12T11:17:43.847Z,65.1
2018-08-12T11:18:34.118Z,64.3
2018-08-12T11:19:23.886Z,63.9
2018-08-12T11:20:13.974Z,63.6
2018-08-12T11:21:03.752Z,63.3
2018-08-12T11:21:54.412Z,62.8
2018-08-12T11:22:44.474Z,62
2018-08-12T11:23:34.496Z,61.2
2018-08-12T11:24:24.292Z,60.6
2018-08-12T11:25:14.648Z,60.3
2018-08-12T11:26:04.184Z,60
2018-08-12T11:26:54.758Z,59.8
2018-08-12T11:27:44.894Z,61.4
2018-08-12T11:28:35.356Z,67.5
2018-08-12T11:29:24.698Z,69.4
2018-08-12T11:30:15.022Z,69.3
2018-08-12T11:31:05.184Z,68.1
2018-08-12T11:31:54.313Z,66.8
2018-08-12T11:32:44.426Z,66.1
2018-08-12T11:33:35.283Z,66.3
2018-08-12T11:34:25.371Z,67.4
2018-08-12T11:35:15.408Z,68.4
2018-08-12T11:36:55.570Z,69.1
2018-08-12T11:37:45.662Z,68.8
2018-08-12T11:38:35.388Z,68.3
2018-08-12T11:39:25.460Z,67.9
2018-08-12T11:40:15.831Z,68.1
2018-08-12T11:41:05.741Z,68.3
2018-08-12T11:41:55.659Z,68.6
2018-08-12T11:42:46.033Z,68.8
2018-08-12T11:43:35.766Z,68.9
2018-08-12T11:44:25.604Z,68.9
2018-08-12T11:45:16.207Z,68.9
2018-08-12T11:46:05.981Z,68.8
2018-08-12T11:46:56.312Z,68.9
2018-08-12T11:47:46.382Z,68.9
2018-08-12T11:48:36.419Z,68.9
2018-08-12T11:49:26.250Z,69
2018-08-12T11:50:16.037Z,69
2018-08-12T11:51:06.650Z,69
2018-08-12T11:51:56.687Z,68.9
2018-08-12T11:52:46.218Z,68.9
2018-08-12T11:53:36.858Z,69
2018-08-12T11:54:26.630Z,69
2018-08-12T11:55:16.707Z,68.9
2018-08-12T11:56:06.770Z,69
2018-08-12T11:56:57.464Z,69.1
2018-08-12T11:57:46.641Z,69.1
2018-08-12T11:58:36.997Z,69.1
2018-08-12T11:59:27.044Z,69.3
2018-08-12T12:00:15.970Z,69.3
2018-08-12T12:01:07.162Z,69.3
2018-08-12T12:01:57.502Z,69.3
2018-08-12T12:02:47.606Z,69.4
2018-08-12T12:03:36.774Z,69.4
2018-08-12T12:04:28.649Z,69.4
2018-08-12T12:05:17.805Z,69.4
2018-08-12T12:06:07.827Z,69.5